Time;durP1;ratioP1;P1;durP2;ratioP2;P2;SDS_P1;SDS_P2;PMS_P1;PMS_P2;Temp;Humidity;BMP_temperature;BMP_pressure;BME280_temperature;BME280_humidity;BME280_pressure;Samples;Min_cycle;Max_cycle;Signal;HPM_P1;HPM_P2
2021/05/18 00:02:02;;;;;;;0.80;0.80;;;10.60;99.90;;;;;;4894543;29;20791;-85
2021/05/18 00:04:28;;;;;;;0.70;0.70;;;10.60;99.90;;;;;;4899399;29;20751;-77
2021/05/18 00:06:54;;;;;;;0.70;0.70;;;10.60;99.90;;;;;;4879112;29;20407;-86
2021/05/18 00:12:05;;;;;;;0.75;0.70;;;10.50;99.90;;;;;;4893390;29;20426;-77
2021/05/18 00:14:32;;;;;;;0.80;0.70;;;10.50;99.90;;;;;;4891769;29;20416;-77
2021/05/18 00:16:58;;;;;;;0.80;0.80;;;10.50;99.90;;;;;;4892653;29;20763;-75
2021/05/18 00:19:23;;;;;;;0.70;0.70;;;10.50;99.90;;;;;;4888446;29;20415;-79
2021/05/18 00:21:49;;;;;;;0.80;0.80;;;10.50;99.90;;;;;;4863395;29;20466;-76
2021/05/18 00:24:15;;;;;;;0.70;0.70;;;10.40;99.90;;;;;;4880334;29;20412;-85
2021/05/18 00:26:40;;;;;;;0.70;0.70;;;10.40;99.90;;;;;;4901071;29;20400;-83
2021/05/18 00:29:06;;;;;;;0.77;0.77;;;10.60;99.90;;;;;;4879792;29;20921;-81
2021/05/18 00:31:32;;;;;;;0.82;0.82;;;10.30;99.90;;;;;;4865898;29;20409;-78
2021/05/18 00:33:58;;;;;;;0.60;0.60;;;10.30;99.90;;;;;;4879110;29;20512;-79
2021/05/18 00:36:23;;;;;;;0.70;0.70;;;10.30;99.90;;;;;;4899746;29;20463;-81
2021/05/18 00:38:49;;;;;;;0.80;0.80;;;10.30;99.90;;;;;;4880292;29;20410;-76
2021/05/18 00:41:15;;;;;;;0.68;0.68;;;10.20;99.90;;;;;;4894365;29;20907;-75
2021/05/18 00:43:40;;;;;;;0.80;0.80;;;10.20;99.90;;;;;;4911070;29;20419;-78
2021/05/18 00:46:06;;;;;;;0.63;0.63;;;10.30;99.90;;;;;;4882532;29;20403;-81
2021/05/18 00:48:33;;;;;;;0.80;0.80;;;10.20;99.90;;;;;;4883960;29;20491;-74
2021/05/18 00:51:01;;;;;;;0.80;0.80;;;10.20;99.90;;;;;;4875164;29;20827;-76
2021/05/18 00:53:27;;;;;;;0.63;0.63;;;10.20;99.90;;;;;;4887780;29;20444;-77
2021/05/18 00:56:06;;;;;;;0.80;0.80;;;10.10;99.90;;;;;;4883865;29;20407;-80
2021/05/18 00:58:38;;;;;;;0.80;0.80;;;10.00;99.90;;;;;;4880283;29;20424;-82
2021/05/18 01:01:17;;;;;;;0.70;0.70;;;10.10;99.90;;;;;;4891068;29;20428;-84
2021/05/18 01:03:43;;;;;;;0.80;0.80;;;10.00;99.90;;;;;;4898278;29;20411;-84
2021/05/18 01:06:19;;;;;;;0.80;0.80;;;10.10;99.90;;;;;;4881435;29;20423;-81
2021/05/18 01:08:45;;;;;;;0.90;0.90;;;10.00;99.90;;;;;;4884946;29;20412;-82
2021/05/18 01:11:11;;;;;;;0.80;0.80;;;10.00;99.90;;;;;;4897607;29;20411;-78
2021/05/18 01:13:38;;;;;;;0.80;0.80;;;9.90;99.90;;;;;;4878530;29;20416;-77
2021/05/18 01:16:05;;;;;;;0.70;0.70;;;9.90;99.90;;;;;;4874178;29;20822;-80
2021/05/18 01:18:47;;;;;;;0.68;0.68;;;9.80;99.90;;;;;;4869001;29;20409;-78
2021/05/18 01:21:13;;;;;;;0.90;0.90;;;9.90;99.90;;;;;;4883079;29;20410;-77
2021/05/18 01:23:39;;;;;;;0.75;0.75;;;9.70;99.90;;;;;;4898098;29;20771;-75
2021/05/18 01:26:05;;;;;;;0.82;0.82;;;9.80;99.90;;;;;;4892514;29;20496;-83
2021/05/18 01:28:31;;;;;;;0.90;0.90;;;9.70;99.90;;;;;;4879816;29;20409;-87
2021/05/18 01:30:57;;;;;;;0.80;0.80;;;9.70;99.90;;;;;;4891624;29;20404;-82
2021/05/18 01:33:24;;;;;;;0.90;0.80;;;9.60;99.90;;;;;;4881935;29;20918;-89
2021/05/18 01:35:50;;;;;;;0.80;0.80;;;9.60;99.90;;;;;;4872030;29;20487;-83
2021/05/18 01:38:20;;;;;;;0.80;0.80;;;9.60;99.90;;;;;;4883083;29;20395;-76
2021/05/18 01:43:31;;;;;;;0.88;0.88;;;9.70;99.90;;;;;;4890617;29;20425;-74
2021/05/18 01:45:57;;;;;;;0.80;0.80;;;9.60;99.90;;;;;;4867242;29;20409;-80
2021/05/18 01:48:23;;;;;;;1.00;1.00;;;9.70;99.90;;;;;;4874110;29;20463;-78
2021/05/18 01:50:48;;;;;;;0.80;0.80;;;9.50;99.90;;;;;;4882308;29;20407;-86
2021/05/18 01:53:16;;;;;;;0.70;0.70;;;9.50;99.90;;;;;;4873344;29;20423;-80
2021/05/18 01:58:47;;;;;;;0.88;0.88;;;9.60;99.90;;;;;;4815477;29;20882;-79
2021/05/18 02:01:33;;;;;;;0.70;0.70;;;9.50;99.90;;;;;;4845055;29;21478;-81
2021/05/18 02:03:59;;;;;;;0.98;0.93;;;9.50;99.90;;;;;;4862776;29;20436;-85
2021/05/18 02:06:25;;;;;;;0.88;0.88;;;9.40;99.90;;;;;;4866291;29;20403;-74
2021/05/18 02:09:01;;;;;;;0.90;0.90;;;9.40;99.90;;;;;;4882120;29;20409;-75
2021/05/18 02:11:34;;;;;;;0.80;0.80;;;9.40;99.90;;;;;;4889329;29;20415;-79
2021/05/18 02:14:05;;;;;;;0.70;0.70;;;9.40;99.90;;;;;;4878433;29;20429;-77
2021/05/18 02:16:40;;;;;;;0.80;0.80;;;9.40;99.90;;;;;;4870146;29;20409;-84
2021/05/18 02:19:54;;;;;;;0.70;0.70;;;9.40;99.90;;;;;;4880611;29;20922;-82
2021/05/18 02:25:01;;;;;;;0.80;0.80;;;9.30;99.90;;;;;;4883334;29;20400;-76
2021/05/18 02:27:40;;;;;;;0.82;0.82;;;9.30;99.90;;;;;;4886586;29;20413;-81
2021/05/18 02:30:15;;;;;;;0.80;0.80;;;9.20;99.90;;;;;;4894619;29;20401;-87
2021/05/18 02:32:46;;;;;;;0.73;0.73;;;9.20;99.90;;;;;;4871186;29;20409;-81
2021/05/18 02:35:29;;;;;;;0.80;0.80;;;9.20;99.90;;;;;;4883084;29;20405;-81
2021/05/18 02:37:55;;;;;;;0.70;0.70;;;9.10;99.90;;;;;;4882211;29;20393;-81
2021/05/18 02:40:23;;;;;;;0.88;0.88;;;9.10;99.90;;;;;;4882642;29;20408;-82
2021/05/18 02:42:50;;;;;;;0.70;0.70;;;9.10;99.90;;;;;;4883931;29;20454;-84
2021/05/18 02:50:26;;;;;;;0.82;0.82;;;9.10;99.90;;;;;;4889972;29;20408;-88
2021/05/18 02:52:52;;;;;;;0.80;0.80;;;9.00;99.90;;;;;;4901157;29;20790;-76
2021/05/18 02:55:31;;;;;;;0.90;0.80;;;9.00;99.90;;;;;;4886315;29;20463;-76
2021/05/18 02:57:57;;;;;;;0.70;0.70;;;9.00;99.90;;;;;;4883518;29;20488;-80
2021/05/18 03:00:23;;;;;;;0.77;0.77;;;9.00;99.90;;;;;;4912697;29;20885;-83
2021/05/18 03:02:50;;;;;;;0.88;0.88;;;9.00;99.90;;;;;;4900674;29;20480;-79
2021/05/18 03:05:17;;;;;;;0.80;0.80;;;9.00;99.90;;;;;;4885636;29;20438;-79
2021/05/18 03:07:44;;;;;;;0.70;0.70;;;9.00;99.90;;;;;;4888631;29;20922;-80
2021/05/18 03:10:10;;;;;;;1.20;0.90;;;9.00;99.90;;;;;;4866200;29;20405;-83
2021/05/18 03:12:36;;;;;;;0.70;0.70;;;9.00;99.90;;;;;;4882311;29;20447;-85
2021/05/18 03:15:02;;;;;;;0.80;0.80;;;9.00;99.90;;;;;;4873777;29;20497;-83
2021/05/18 03:17:29;;;;;;;0.90;0.90;;;9.00;99.90;;;;;;4861820;29;20404;-88
2021/05/18 03:19:55;;;;;;;0.80;0.80;;;9.00;99.90;;;;;;4884941;29;20395;-77
2021/05/18 03:22:21;;;;;;;0.80;0.80;;;8.90;99.90;;;;;;4885170;29;20411;-88
2021/05/18 03:24:46;;;;;;;0.85;0.85;;;8.90;99.90;;;;;;4876932;29;20551;-83
2021/05/18 03:27:12;;;;;;;0.80;0.80;;;8.90;99.90;;;;;;4868896;29;20411;-80
2021/05/18 03:29:38;;;;;;;0.82;0.80;;;8.90;99.90;;;;;;4869243;29;20471;-80
2021/05/18 03:34:50;;;;;;;0.80;0.80;;;8.90;99.90;;;;;;4889606;29;20419;-87
2021/05/18 03:39:47;;;;;;;1.00;0.90;;;8.90;99.90;;;;;;4885462;29;20420;-82
2021/05/18 03:42:15;;;;;;;0.90;0.90;;;8.90;99.90;;;;;;4886883;29;20392;-82
2021/05/18 03:45:00;;;;;;;1.07;0.97;;;8.90;99.90;;;;;;4890233;29;20439;-77
2021/05/18 04:03:57;;;;;;;0.93;0.90;;;9.00;99.90;;;;;;4916438;29;20423;-79
2021/05/18 04:12:06;;;;;;;0.85;0.85;;;9.10;99.90;;;;;;4886544;29;20403;-79
2021/05/18 04:17:16;;;;;;;0.90;0.90;;;9.30;99.90;;;;;;4887462;29;20436;-80
2021/05/18 04:20:03;;;;;;;0.90;0.88;;;9.30;99.90;;;;;;4886618;29;20417;-83
2021/05/18 04:49:49;;;;;;;0.90;0.90;;;10.80;99.90;;;;;;4897550;29;20401;-85
2021/05/18 05:00:01;;;;;;;0.80;0.80;;;11.60;99.90;;;;;;4915371;29;20407;-76
2021/05/18 05:08:02;;;;;;;0.90;0.90;;;11.90;99.90;;;;;;4893992;29;20413;-85
2021/05/18 05:12:29;;;;;;;1.25;1.08;;;11.90;99.90;;;;;;4872798;29;20399;-78
2021/05/18 05:15:43;;;;;;;1.20;1.20;;;12.00;99.90;;;;;;4898356;29;20483;-76
2021/05/18 05:18:11;;;;;;;1.08;1.00;;;12.10;99.90;;;;;;4885537;29;20412;-75
2021/05/18 05:20:37;;;;;;;2.10;1.10;;;12.20;99.90;;;;;;4866255;29;20396;-79
2021/05/18 05:23:03;;;;;;;1.05;1.05;;;12.20;99.90;;;;;;4881258;29;20420;-82
2021/05/18 05:25:29;;;;;;;1.10;1.10;;;12.20;99.90;;;;;;4863259;29;20417;-79
2021/05/18 05:27:54;;;;;;;1.40;1.30;;;12.20;99.90;;;;;;4866377;29;20404;-77
2021/05/18 05:30:20;;;;;;;1.00;1.00;;;12.20;99.90;;;;;;4867079;29;20400;-78
2021/05/18 05:32:46;;;;;;;1.00;1.00;;;12.20;99.90;;;;;;4881638;29;20414;-77
2021/05/18 05:35:12;;;;;;;0.90;0.90;;;12.30;99.90;;;;;;4880633;29;20403;-86
2021/05/18 05:37:37;;;;;;;1.40;1.30;;;12.20;99.90;;;;;;4880394;29;20397;-86
2021/05/18 05:40:04;;;;;;;2.17;1.17;;;12.30;99.90;;;;;;4895376;29;20464;-89
2021/05/18 05:42:30;;;;;;;0.90;0.90;;;12.40;99.90;;;;;;4889227;29;20388;-79
2021/05/18 05:44:56;;;;;;;1.13;1.13;;;12.40;99.90;;;;;;4885627;29;21908;-75
2021/05/18 05:47:21;;;;;;;1.30;1.10;;;12.40;99.90;;;;;;4861444;29;20485;-77
2021/05/18 05:49:47;;;;;;;1.67;1.23;;;12.40;99.90;;;;;;4881912;29;20426;-79
2021/05/18 05:52:22;;;;;;;1.30;1.20;;;12.30;99.90;;;;;;4897539;29;20412;-78
2021/05/18 05:54:48;;;;;;;1.03;1.03;;;12.40;99.90;;;;;;4881939;29;21046;-82
2021/05/18 05:57:14;;;;;;;1.40;1.30;;;12.40;99.90;;;;;;4891144;29;20461;-82
2021/05/18 05:59:40;;;;;;;1.33;1.23;;;12.50;99.90;;;;;;4867755;29;20400;-76
2021/05/18 06:02:05;;;;;;;2.63;1.53;;;12.40;99.90;;;;;;4877409;29;20408;-77
2021/05/18 06:04:31;;;;;;;1.50;1.40;;;12.60;99.90;;;;;;4907776;29;20437;-78
2021/05/18 06:06:58;;;;;;;1.33;1.23;;;12.60;99.90;;;;;;4881795;29;20415;-79
2021/05/18 06:09:24;;;;;;;1.50;1.40;;;12.70;99.90;;;;;;4895538;29;20851;-77
2021/05/18 06:12:16;;;;;;;1.50;1.40;;;12.70;99.90;;;;;;4879770;29;20405;-81
2021/05/18 06:18:03;;;;;;;1.50;1.40;;;12.60;99.90;;;;;;4885319;29;20395;-77
2021/05/18 06:47:39;;;;;;;2.65;2.40;;;13.10;99.90;;;;;;4891269;29;20404;-76
2021/05/18 06:52:44;;;;;;;2.67;2.45;;;13.50;99.90;;;;;;4898053;29;21834;-80
2021/05/18 06:55:13;;;;;;;2.97;2.33;;;13.50;99.90;;;;;;4880380;29;20407;-76
2021/05/18 06:57:42;;;;;;;2.47;2.28;;;13.70;99.90;;;;;;4898131;29;21139;-80
2021/05/18 07:00:10;;;;;;;3.35;2.30;;;13.90;99.90;;;;;;4904826;29;20400;-78
2021/05/18 07:02:40;;;;;;;2.80;2.60;;;14.00;99.90;;;;;;4897885;29;20411;-82
2021/05/18 07:05:12;;;;;;;2.72;2.53;;;14.10;99.90;;;;;;4878883;29;20401;-79
2021/05/18 07:07:38;;;;;;;3.17;2.47;;;14.20;99.90;;;;;;4896664;29;20397;-82
2021/05/18 07:10:05;;;;;;;2.60;2.40;;;14.10;99.90;;;;;;4839372;29;20447;-79
2021/05/18 07:12:31;;;;;;;4.25;3.13;;;14.20;99.90;;;;;;4843795;29;20409;-83
2021/05/18 07:15:00;;;;;;;2.80;2.60;;;14.20;99.90;;;;;;4898531;29;20420;-80
2021/05/18 07:17:26;;;;;;;5.18;2.63;;;14.30;99.90;;;;;;4899580;29;20406;-79
2021/05/18 07:19:51;;;;;;;2.50;2.30;;;14.50;99.90;;;;;;4884042;29;20419;-82
2021/05/18 07:22:17;;;;;;;3.13;2.90;;;14.40;99.90;;;;;;4887599;29;20480;-83
2021/05/18 07:24:43;;;;;;;3.28;2.60;;;14.50;99.90;;;;;;4885771;29;20400;-76
2021/05/18 07:27:09;;;;;;;2.90;2.70;;;14.80;99.90;;;;;;4881623;29;20500;-75
2021/05/18 07:29:35;;;;;;;2.77;2.50;;;15.10;99.90;;;;;;4906560;29;20835;-80
2021/05/18 07:32:00;;;;;;;3.00;2.80;;;15.10;99.90;;;;;;4872011;29;20411;-76
2021/05/18 07:34:26;;;;;;;2.73;2.53;;;15.10;99.90;;;;;;4902588;29;20475;-76
2021/05/18 07:36:52;;;;;;;3.13;2.88;;;14.90;99.90;;;;;;4885241;29;20404;-77
2021/05/18 07:39:17;;;;;;;3.30;3.00;;;14.80;99.90;;;;;;4892826;29;20414;-78
2021/05/18 07:41:43;;;;;;;3.45;3.15;;;14.60;99.90;;;;;;4900317;29;21011;-89
2021/05/18 07:44:09;;;;;;;3.30;3.00;;;14.50;99.90;;;;;;4882918;29;22006;-79
2021/05/18 07:46:38;;;;;;;4.15;3.03;;;14.40;99.90;;;;;;4895222;29;20439;-79
2021/05/18 07:49:23;;;;;;;3.90;3.40;;;14.50;99.90;;;;;;4889382;29;20407;-88
2021/05/18 08:07:42;;;;;;;3.35;3.05;;;14.90;99.90;;;;;;4903278;29;20407;-79
2021/05/18 08:12:37;;;;;;;3.72;3.15;;;14.70;99.90;;;;;;4884803;29;20431;-76
2021/05/18 08:20:36;;;;;;;3.28;2.97;;;14.70;99.90;;;;;;4881178;29;20473;-88
2021/05/18 08:56:00;;;;;;;2.50;2.30;;;15.80;99.90;;;;;;4884949;29;20416;-77
2021/05/18 10:34:54;;;;;;;0.80;0.80;;;15.50;99.90;;;;;;4881148;29;20522;-81
2021/05/18 10:37:42;;;;;;;0.70;0.70;;;15.70;99.90;;;;;;4883345;29;20483;-82
2021/05/18 10:40:24;;;;;;;0.77;0.77;;;16.20;99.90;;;;;;4866630;29;20407;-82
2021/05/18 10:43:08;;;;;;;0.98;0.98;;;17.10;99.90;;;;;;4902618;29;20420;-78
2021/05/18 10:46:00;;;;;;;0.90;0.90;;;17.30;99.90;;;;;;4896486;29;20399;-86
2021/05/18 10:48:34;;;;;;;0.90;0.90;;;17.10;99.90;;;;;;4897197;29;20565;-84
2021/05/18 10:51:23;;;;;;;0.90;0.90;;;17.20;99.90;;;;;;4920223;29;20491;-78
2021/05/18 10:54:18;;;;;;;0.77;0.77;;;17.30;99.90;;;;;;4911137;29;20421;-78
2021/05/18 10:56:53;;;;;;;0.80;0.80;;;17.30;99.90;;;;;;4914494;29;20471;-77
2021/05/18 10:59:19;;;;;;;1.10;1.10;;;17.20;99.90;;;;;;4897657;29;20445;-83
2021/05/18 11:01:45;;;;;;;0.80;0.80;;;17.50;99.90;;;;;;4901610;29;21179;-81
2021/05/18 11:04:12;;;;;;;0.90;0.90;;;17.60;99.90;;;;;;4883588;29;20405;-78
2021/05/18 11:06:54;;;;;;;1.13;1.10;;;17.70;99.90;;;;;;4876572;29;20410;-78
2021/05/18 11:09:20;;;;;;;1.02;1.02;;;18.30;99.90;;;;;;4871037;29;20411;-79
2021/05/18 11:11:56;;;;;;;1.07;1.07;;;18.60;99.90;;;;;;4872110;29;20403;-79
2021/05/18 11:14:30;;;;;;;1.20;1.13;;;18.20;99.90;;;;;;4904277;29;20511;-80
2021/05/18 11:17:18;;;;;;;2.03;1.30;;;18.10;99.90;;;;;;4883348;29;20415;-81
2021/05/18 11:25:57;;;;;;;0.90;0.90;;;18.40;99.90;;;;;;4904589;29;20418;-77
2021/05/18 11:28:30;;;;;;;2.80;1.17;;;19.10;99.90;;;;;;4885354;29;20467;-78
2021/05/18 11:31:02;;;;;;;1.20;1.10;;;19.60;99.90;;;;;;4887892;29;20419;-79
2021/05/18 11:33:35;;;;;;;0.95;0.95;;;20.20;99.90;;;;;;4900872;29;20780;-80
2021/05/18 11:36:09;;;;;;;1.00;1.00;;;20.60;99.90;;;;;;4899534;29;20463;-79
2021/05/18 11:38:54;;;;;;;1.00;1.00;;;20.70;99.90;;;;;;4899282;29;20400;-79
2021/05/18 11:41:20;;;;;;;1.20;1.10;;;21.10;99.90;;;;;;4886406;29;20408;-80
2021/05/18 11:43:50;;;;;;;1.20;0.90;;;21.10;99.90;;;;;;4888174;29;20465;-80
2021/05/18 11:46:15;;;;;;;0.90;0.90;;;21.00;99.90;;;;;;4894385;29;20399;-79
2021/05/18 11:48:43;;;;;;;0.90;0.90;;;20.90;99.90;;;;;;4898590;29;20839;-78
2021/05/18 11:51:10;;;;;;;1.15;1.02;;;21.10;99.90;;;;;;4868125;29;20484;-79
2021/05/18 11:53:38;;;;;;;0.80;0.80;;;20.80;99.90;;;;;;4883862;29;20411;-79
2021/05/18 11:56:29;;;;;;;0.80;0.80;;;20.70;99.90;;;;;;4898741;29;20400;-79
2021/05/18 11:59:06;;;;;;;1.20;1.00;;;21.00;99.90;;;;;;4858637;29;20409;-79
2021/05/18 12:01:53;;;;;;;0.95;0.95;;;20.90;99.90;;;;;;4881855;29;20415;-79
2021/05/18 12:04:20;;;;;;;0.98;0.98;;;20.60;99.90;;;;;;4893713;29;20417;-79
2021/05/18 12:07:08;;;;;;;0.97;0.97;;;21.30;99.90;;;;;;4885010;29;20399;-79
2021/05/18 12:09:36;;;;;;;1.07;1.07;;;21.00;99.90;;;;;;4898396;29;20403;-79
2021/05/18 12:12:07;;;;;;;0.90;0.90;;;20.80;99.90;;;;;;4880959;29;20413;-79
2021/05/18 12:14:49;;;;;;;1.55;1.10;;;20.80;99.90;;;;;;4881775;29;20419;-79
2021/05/18 12:17:36;;;;;;;0.85;0.85;;;20.60;97.60;;;;;;4882436;29;20427;-81
2021/05/18 12:20:04;;;;;;;1.20;1.10;;;21.00;99.90;;;;;;4884577;29;20966;-80
2021/05/18 12:22:29;;;;;;;1.30;1.20;;;21.20;99.90;;;;;;4884486;29;20477;-79
2021/05/18 12:24:56;;;;;;;1.17;1.05;;;20.80;97.30;;;;;;4883073;29;20411;-79
2021/05/18 12:27:22;;;;;;;1.77;1.17;;;21.30;96.20;;;;;;4868169;29;20407;-79
2021/05/18 12:29:55;;;;;;;1.75;1.20;;;21.60;99.70;;;;;;4883779;29;20404;-79
2021/05/18 12:32:38;;;;;;;0.88;0.85;;;22.00;98.10;;;;;;4889594;29;20973;-79
2021/05/18 12:35:04;;;;;;;1.30;1.20;;;22.10;96.10;;;;;;4900183;29;20979;-78
2021/05/18 12:37:33;;;;;;;1.55;1.15;;;22.10;93.70;;;;;;4896208;29;20436;-79
2021/05/18 12:39:59;;;;;;;1.00;1.00;;;22.30;95.60;;;;;;4898104;29;20748;-79
2021/05/18 12:42:28;;;;;;;1.30;1.20;;;22.40;97.00;;;;;;4875170;29;20424;-79
2021/05/18 12:45:01;;;;;;;1.23;1.15;;;21.90;93.10;;;;;;4878913;29;20410;-78
2021/05/18 12:47:28;;;;;;;1.83;1.33;;;22.00;95.10;;;;;;4891557;29;20860;-79
2021/05/18 12:49:54;;;;;;;0.85;0.85;;;21.90;95.70;;;;;;4882976;29;20497;-80
2021/05/18 12:52:19;;;;;;;1.60;1.20;;;22.30;94.20;;;;;;4882681;29;20838;-80
2021/05/18 12:54:52;;;;;;;1.30;1.20;;;22.70;95.00;;;;;;4878393;29;20820;-79
2021/05/18 12:57:21;;;;;;;0.80;0.80;;;22.20;91.60;;;;;;4910506;29;20413;-80
2021/05/18 13:00:06;;;;;;;0.90;0.90;;;22.30;93.30;;;;;;4864760;29;20465;-80
2021/05/18 13:02:35;;;;;;;1.67;1.20;;;21.70;94.30;;;;;;4895112;29;20404;-80
2021/05/18 13:05:04;;;;;;;1.50;1.10;;;21.50;94.90;;;;;;4892546;29;20411;-80
2021/05/18 13:07:30;;;;;;;1.40;1.30;;;21.30;94.80;;;;;;4902275;29;20483;-80
2021/05/18 13:10:37;;;;;;;1.10;1.00;;;21.40;94.30;;;;;;4889373;29;20474;-79
2021/05/18 13:13:03;;;;;;;1.20;1.10;;;21.70;96.30;;;;;;4861726;29;20520;-80
2021/05/18 13:15:29;;;;;;;0.90;0.90;;;22.20;94.00;;;;;;4882122;29;20435;-79
2021/05/18 13:17:58;;;;;;;1.20;1.10;;;22.60;92.20;;;;;;4882536;29;20420;-80
2021/05/18 13:20:25;;;;;;;1.00;1.00;;;23.20;92.40;;;;;;4882324;29;20408;-80
2021/05/18 13:22:58;;;;;;;0.90;0.90;;;23.50;93.70;;;;;;4879964;29;20469;-80
2021/05/18 13:28:08;;;;;;;1.45;1.10;;;23.00;91.80;;;;;;4885665;29;20410;-80
2021/05/18 13:30:36;;;;;;;1.17;1.10;;;22.10;88.80;;;;;;4889349;29;20391;-80
2021/05/18 13:33:01;;;;;;;1.00;1.00;;;21.30;88.20;;;;;;4881736;29;20864;-79
2021/05/18 13:35:29;;;;;;;1.10;1.00;;;21.10;90.90;;;;;;4881375;29;20403;-79
2021/05/18 13:37:55;;;;;;;0.77;0.77;;;20.90;90.80;;;;;;4883925;29;20407;-79
2021/05/18 13:40:25;;;;;;;0.90;0.90;;;20.80;91.60;;;;;;4884194;29;20415;-78
2021/05/18 13:42:52;;;;;;;1.20;1.10;;;20.60;91.70;;;;;;4870390;29;20902;-78
2021/05/18 13:45:25;;;;;;;1.10;1.10;;;20.50;91.30;;;;;;4884002;29;20404;-78
2021/05/18 13:48:11;;;;;;;1.15;1.05;;;20.60;91.50;;;;;;4900378;29;20405;-78
2021/05/18 13:50:54;;;;;;;1.00;0.93;;;20.80;92.40;;;;;;4890941;29;20486;-78
2021/05/18 13:53:22;;;;;;;1.20;1.10;;;20.80;92.10;;;;;;4869173;29;20986;-78
2021/05/18 13:55:47;;;;;;;1.55;1.38;;;21.70;93.10;;;;;;4885092;29;20412;-79
2021/05/18 13:58:24;;;;;;;0.90;0.90;;;21.00;91.20;;;;;;4869206;29;20404;-78
2021/05/18 14:01:15;;;;;;;1.17;1.10;;;20.80;91.50;;;;;;4875849;29;20761;-77
2021/05/18 14:04:10;;;;;;;0.80;0.80;;;20.70;90.90;;;;;;4897849;29;20395;-78
2021/05/18 14:07:01;;;;;;;1.00;1.00;;;20.80;90.60;;;;;;4900550;29;20468;-80
2021/05/18 14:09:30;;;;;;;1.50;1.10;;;21.20;91.30;;;;;;4889799;29;20404;-80
2021/05/18 14:14:42;;;;;;;3.25;1.10;;;21.20;88.10;;;;;;4888802;29;20457;-81
2021/05/18 14:17:30;;;;;;;0.80;0.80;;;20.90;86.80;;;;;;4878579;29;20410;-81
2021/05/18 14:19:56;;;;;;;0.85;0.85;;;20.50;85.70;;;;;;4891555;29;20409;-81
2021/05/18 14:22:22;;;;;;;0.90;0.90;;;20.50;88.60;;;;;;4871326;29;20427;-81
2021/05/18 14:24:55;;;;;;;0.70;0.70;;;20.30;86.40;;;;;;4872948;29;20405;-81
2021/05/18 14:27:44;;;;;;;1.20;1.08;;;20.50;84.00;;;;;;4903530;29;20409;-81
2021/05/18 14:30:14;;;;;;;0.90;0.90;;;20.20;83.20;;;;;;4886428;29;20488;-80
2021/05/18 14:32:44;;;;;;;1.05;1.02;;;20.30;86.80;;;;;;4895543;29;20402;-80
2021/05/18 14:35:12;;;;;;;1.02;0.93;;;20.40;85.10;;;;;;4880042;29;20436;-81
2021/05/18 14:37:40;;;;;;;1.00;1.00;;;20.60;89.80;;;;;;4920844;29;20496;-80
2021/05/18 14:43:27;;;;;;;0.98;0.88;;;20.90;87.90;;;;;;4897126;29;20476;-80
2021/05/18 14:45:57;;;;;;;1.08;0.98;;;20.90;86.40;;;;;;4883080;29;20401;-80
2021/05/18 14:56:45;;;;;;;3.58;1.42;;;20.50;89.30;;;;;;4873161;29;20407;-80
2021/05/18 14:59:11;;;;;;;1.40;1.30;;;20.70;92.40;;;;;;4900185;29;20409;-80
2021/05/18 15:01:40;;;;;;;1.05;1.05;;;20.60;91.30;;;;;;4885815;29;20437;-80
2021/05/18 15:04:11;;;;;;;0.90;0.90;;;20.40;89.60;;;;;;4881344;29;20402;-80
2021/05/18 15:06:36;;;;;;;0.95;0.95;;;20.10;88.50;;;;;;4916931;29;20418;-81
2021/05/18 15:09:04;;;;;;;2.55;1.02;;;19.70;90.90;;;;;;4885879;29;20422;-80
2021/05/18 15:11:29;;;;;;;1.90;1.15;;;19.80;90.30;;;;;;4904410;29;20407;-80
2021/05/18 15:13:55;;;;;;;1.13;0.93;;;19.10;91.10;;;;;;4906426;29;20418;-81
2021/05/18 15:16:21;;;;;;;1.17;1.08;;;19.40;91.60;;;;;;4889724;29;20398;-80
2021/05/18 15:18:50;;;;;;;1.10;1.00;;;19.60;93.00;;;;;;4887333;29;20406;-80
2021/05/18 15:21:23;;;;;;;1.58;0.82;;;19.80;91.80;;;;;;4903917;29;20482;-81
2021/05/18 15:23:54;;;;;;;1.40;1.30;;;19.80;90.30;;;;;;4922300;29;20418;-80
2021/05/18 15:26:20;;;;;;;1.05;1.05;;;19.60;91.00;;;;;;4885041;29;20913;-80
2021/05/18 15:28:46;;;;;;;0.90;0.90;;;19.40;92.40;;;;;;4876971;29;20421;-80
2021/05/18 15:31:12;;;;;;;2.38;1.15;;;19.40;92.90;;;;;;4873274;29;20412;-80
2021/05/18 15:33:38;;;;;;;1.20;1.10;;;19.50;92.90;;;;;;4887133;29;20418;-80
2021/05/18 15:36:07;;;;;;;1.00;1.00;;;19.50;92.50;;;;;;4887787;29;20456;-81
2021/05/18 15:38:38;;;;;;;1.08;1.00;;;19.70;93.20;;;;;;4901726;29;20852;-81
2021/05/18 15:41:08;;;;;;;1.00;1.00;;;19.60;93.20;;;;;;4893807;29;20450;-80
2021/05/18 15:43:35;;;;;;;1.27;1.10;;;19.60;93.20;;;;;;4903658;29;20407;-80
2021/05/18 15:46:02;;;;;;;1.50;1.40;;;19.60;92.60;;;;;;4902200;29;20399;-81
2021/05/18 15:48:30;;;;;;;1.15;1.10;;;19.20;91.90;;;;;;4900347;29;20431;-81
2021/05/18 15:51:07;;;;;;;1.35;1.10;;;19.20;93.80;;;;;;4940594;29;20403;-81
2021/05/18 15:53:41;;;;;;;1.05;1.02;;;19.20;93.80;;;;;;4934084;29;20417;-80
2021/05/18 15:56:14;;;;;;;1.08;1.00;;;19.20;93.80;;;;;;4911111;29;20852;-81
2021/05/18 15:58:55;;;;;;;1.00;1.00;;;19.10;91.10;;;;;;4892857;29;20455;-80
2021/05/18 16:01:29;;;;;;;1.70;1.00;;;19.10;90.80;;;;;;4886463;29;20399;-80
2021/05/18 16:03:58;;;;;;;1.00;1.00;;;19.10;92.10;;;;;;4891481;29;20904;-80
2021/05/18 16:06:24;;;;;;;0.98;0.98;;;18.90;92.70;;;;;;4869170;29;20407;-80
2021/05/18 16:11:16;;;;;;;0.98;0.98;;;18.80;94.70;;;;;;4909008;29;20468;-79
2021/05/18 16:13:42;;;;;;;1.10;1.10;;;18.70;93.40;;;;;;4897108;29;20459;-80
2021/05/18 16:16:09;;;;;;;0.93;0.93;;;18.60;92.40;;;;;;4905152;29;20479;-80
2021/05/18 16:18:38;;;;;;;1.10;1.10;;;18.50;93.80;;;;;;4896542;29;21282;-81
2021/05/18 16:21:10;;;;;;;0.90;0.90;;;18.30;93.30;;;;;;4869498;29;20419;-81
2021/05/18 16:23:38;;;;;;;1.00;0.90;;;18.40;93.70;;;;;;4909549;29;20403;-80
2021/05/18 16:26:04;;;;;;;2.30;1.10;;;18.50;93.70;;;;;;4875387;29;20416;-80
2021/05/18 16:28:30;;;;;;;1.08;1.05;;;18.50;93.70;;;;;;4877303;29;20413;-80
2021/05/18 16:30:57;;;;;;;0.90;0.90;;;18.50;94.00;;;;;;4894715;29;20413;-79
2021/05/18 16:33:23;;;;;;;0.97;0.97;;;18.40;94.90;;;;;;4893999;29;20398;-81
2021/05/18 16:35:49;;;;;;;2.15;1.00;;;18.40;95.20;;;;;;4896498;29;20415;-80
2021/05/18 16:38:18;;;;;;;1.57;1.10;;;18.40;95.40;;;;;;4874096;29;20477;-80
2021/05/18 16:40:45;;;;;;;1.45;1.10;;;18.50;96.50;;;;;;4925281;29;20397;-80
2021/05/18 16:43:13;;;;;;;1.90;1.20;;;18.60;96.30;;;;;;4918375;29;20416;-80
2021/05/18 16:45:39;;;;;;;3.67;1.33;;;18.60;95.60;;;;;;4888248;29;20386;-81
2021/05/18 16:48:05;;;;;;;1.30;1.20;;;18.40;96.40;;;;;;4883331;29;20408;-79
2021/05/18 16:50:31;;;;;;;1.92;1.20;;;18.30;96.40;;;;;;4877796;29;20407;-79
2021/05/18 16:52:56;;;;;;;1.25;1.15;;;18.60;97.20;;;;;;4899852;29;20430;-80
2021/05/18 16:55:22;;;;;;;1.07;1.07;;;18.80;96.60;;;;;;4867271;29;20424;-80
2021/05/18 16:57:48;;;;;;;2.53;1.30;;;18.40;94.60;;;;;;4880604;29;20411;-79
2021/05/18 17:00:14;;;;;;;1.30;1.20;;;18.20;95.30;;;;;;4888178;29;20425;-79
2021/05/18 17:02:40;;;;;;;0.70;0.70;;;17.80;95.30;;;;;;4878986;29;20417;-80
2021/05/18 17:05:07;;;;;;;1.10;1.02;;;17.80;95.50;;;;;;4890641;29;20958;-82
2021/05/18 17:07:33;;;;;;;1.17;1.08;;;17.60;96.90;;;;;;4868745;29;20401;-80
2021/05/18 17:09:59;;;;;;;1.13;1.13;;;17.90;97.70;;;;;;4880409;29;20417;-79
2021/05/18 17:12:25;;;;;;;1.03;1.00;;;18.10;96.90;;;;;;4884496;29;20425;-80
2021/05/18 17:14:51;;;;;;;1.02;1.00;;;18.40;96.80;;;;;;4897198;29;20930;-80
2021/05/18 17:17:16;;;;;;;1.83;1.10;;;18.60;96.30;;;;;;4879574;29;20401;-79
2021/05/18 17:19:43;;;;;;;1.70;1.08;;;18.70;95.10;;;;;;4867944;29;20402;-79
2021/05/18 17:22:36;;;;;;;1.65;1.15;;;18.80;95.10;;;;;;4905402;29;20417;-80
2021/05/18 17:25:42;;;;;;;1.30;1.00;;;18.60;93.50;;;;;;4919600;29;20410;-79
2021/05/18 17:29:21;;;;;;;2.00;1.10;;;18.70;95.30;;;;;;4923652;29;20393;-80
2021/05/18 17:32:13;;;;;;;1.07;1.07;;;18.70;94.70;;;;;;4913933;29;20413;-80
2021/05/18 17:35:31;;;;;;;1.38;1.10;;;18.40;94.60;;;;;;4859739;29;20488;-81
2021/05/18 17:38:16;;;;;;;0.82;0.82;;;18.00;93.50;;;;;;4899154;29;20427;-82
2021/05/18 17:40:49;;;;;;;1.88;1.17;;;17.70;94.30;;;;;;4907461;29;20397;-79
2021/05/18 17:43:35;;;;;;;1.05;0.95;;;17.70;94.50;;;;;;4905292;29;20791;-80
2021/05/18 17:46:32;;;;;;;1.60;1.13;;;17.50;95.40;;;;;;4840959;29;20414;-81
2021/05/18 17:49:15;;;;;;;1.20;1.10;;;17.40;95.40;;;;;;4882763;29;20397;-80
2021/05/18 17:51:54;;;;;;;1.23;1.05;;;17.20;96.10;;;;;;4878375;29;20470;-81
2021/05/18 17:54:27;;;;;;;1.13;1.02;;;17.20;97.30;;;;;;4878207;29;20509;-79
2021/05/18 17:56:57;;;;;;;3.50;1.10;;;17.00;97.50;;;;;;4882924;29;20790;-82
2021/05/18 17:59:24;;;;;;;0.90;0.90;;;16.90;97.80;;;;;;4882890;29;20421;-80
2021/05/18 18:01:51;;;;;;;1.67;1.30;;;16.80;98.80;;;;;;4895543;29;20452;-81
2021/05/18 18:04:17;;;;;;;0.88;0.88;;;16.80;98.90;;;;;;4887350;29;20415;-80
2021/05/18 18:06:52;;;;;;;2.50;1.20;;;16.60;99.90;;;;;;4850765;29;20482;-79
2021/05/18 18:09:29;;;;;;;1.00;1.00;;;16.80;99.90;;;;;;4897405;29;20411;-81